createdAt,value
2018-02-27T00:02:10.583Z,101138.28
2018-02-27T00:04:38.090Z,101134.83
2018-02-27T00:07:07.376Z,101133.13
2018-02-27T00:09:34.909Z,101131.66
2018-02-27T00:12:02.403Z,101132.79
2018-02-27T00:14:29.877Z,101134.03
2018-02-27T00:16:57.399Z,101135.12
2018-02-27T00:19:24.894Z,101132.43
2018-02-27T00:21:52.501Z,101131.60
2018-02-27T00:24:19.985Z,101126.52
2018-02-27T00:26:47.465Z,101134.14
2018-02-27T00:29:14.969Z,101134.81
2018-02-27T00:31:42.529Z,101131.58
2018-02-27T00:34:09.988Z,101130.30
2018-02-27T00:36:37.557Z,101134.10
2018-02-27T00:39:05.079Z,101131.98
2018-02-27T00:41:32.567Z,101131.50
2018-02-27T00:44:05.053Z,101133.89
2018-02-27T00:46:32.571Z,101134.45
2018-02-27T00:49:00.033Z,101130.04
2018-02-27T00:51:27.507Z,101127.78
2018-02-27T00:53:55.855Z,101129.52
2018-02-27T00:56:23.316Z,101131.55
2018-02-27T00:58:51.485Z,101131.13
2018-02-27T01:01:18.966Z,101125.52
2018-02-27T01:03:46.464Z,101125.61
2018-02-27T01:06:13.949Z,101117.30
2018-02-27T01:08:41.423Z,101115.64
2018-02-27T01:11:08.960Z,101118.20
2018-02-27T01:13:36.441Z,101116.36
2018-02-27T01:16:03.989Z,101122.02
2018-02-27T01:18:31.433Z,101114.33
2018-02-27T01:20:58.889Z,101110.32
2018-02-27T01:23:26.348Z,101106.70
2018-02-27T01:25:53.849Z,101112.18
2018-02-27T01:28:21.331Z,101111.75
2018-02-27T01:30:48.818Z,101110.30
2018-02-27T01:33:16.311Z,101106.48
2018-02-27T01:35:43.829Z,101110.17
2018-02-27T01:38:11.333Z,101112.19
2018-02-27T01:40:39.023Z,101107.72
2018-02-27T01:43:06.518Z,101107.59
2018-02-27T01:45:34.017Z,101107.75
2018-02-27T01:48:01.495Z,101104.64
2018-02-27T01:50:29.025Z,101101.61
2018-02-27T01:52:56.623Z,101094.79
2018-02-27T01:55:24.097Z,101095.47
2018-02-27T01:57:51.641Z,101093.58
2018-02-27T02:00:19.119Z,101094.63
2018-02-27T02:02:46.637Z,101086.12
2018-02-27T02:05:14.115Z,101088.34
2018-02-27T02:07:41.680Z,101090.97
2018-02-27T02:10:09.163Z,101089.72
2018-02-27T02:12:36.644Z,101091.35
2018-02-27T02:15:04.099Z,101083.31
2018-02-27T02:17:31.643Z,101085.13
2018-02-27T02:19:59.083Z,101083.88
2018-02-27T02:22:26.654Z,101073.81
2018-02-27T02:24:54.112Z,101077.19
2018-02-27T02:27:21.595Z,101073.63
2018-02-27T02:29:49.148Z,101066.80
2018-02-27T02:32:16.686Z,101070.03
2018-02-27T02:34:44.183Z,101062.97
2018-02-27T02:37:11.676Z,101067.64
2018-02-27T02:39:39.157Z,101056.58
2018-02-27T02:42:24.452Z,101056.39
2018-02-27T02:44:52.918Z,101049.20
2018-02-27T02:47:20.370Z,101052.55
2018-02-27T02:49:47.829Z,101054.11
2018-02-27T02:52:15.305Z,101052.90
2018-02-27T02:54:42.832Z,101051.00
2018-02-27T02:57:10.343Z,101055.44
2018-02-27T02:59:37.898Z,101054.68
2018-02-27T03:02:05.374Z,101051.00
2018-02-27T03:04:32.858Z,101053.16
2018-02-27T03:07:00.327Z,101055.55
2018-02-27T03:09:27.842Z,101052.70
2018-02-27T03:11:55.346Z,101052.30
2018-02-27T03:14:22.817Z,101046.04
2018-02-27T03:16:50.294Z,101053.20
2018-02-27T03:19:17.818Z,101042.92
2018-02-27T03:21:45.292Z,101042.59
2018-02-27T03:24:12.756Z,101049.03
2018-02-27T03:26:40.474Z,101041.48
2018-02-27T03:29:07.982Z,101041.03
2018-02-27T03:31:35.469Z,101035.80
2018-02-27T03:34:02.948Z,101035.98
2018-02-27T03:36:30.501Z,101032.66
2018-02-27T03:38:57.954Z,101031.39
2018-02-27T03:41:25.450Z,101030.75
2018-02-27T03:43:52.915Z,101027.50
2018-02-27T03:46:20.373Z,101023.52
2018-02-27T03:48:47.938Z,101022.30
2018-02-27T03:51:15.417Z,101009.50
2018-02-27T03:53:42.856Z,101017.80
2018-02-27T03:56:10.365Z,101022.72
2018-02-27T03:58:37.820Z,101019.13
2018-02-27T04:01:05.321Z,101018.36
2018-02-27T04:03:32.788Z,101019.20
2018-02-27T04:06:00.235Z,101021.09
2018-02-27T04:08:27.723Z,101015.94
2018-02-27T04:10:55.226Z,101025.19
2018-02-27T04:13:22.839Z,101018.06
2018-02-27T04:15:50.328Z,101013.74
2018-02-27T04:18:17.804Z,101019.05
2018-02-27T04:20:52.114Z,101021.95
2018-02-27T04:23:19.624Z,101020.06
2018-02-27T04:25:47.088Z,101016.61
2018-02-27T04:28:14.552Z,101018.73
2018-02-27T04:30:42.042Z,101014.91
2018-02-27T04:33:09.512Z,101020.75
2018-02-27T04:35:36.960Z,101016.13
2018-02-27T04:38:04.460Z,101018.12
2018-02-27T04:40:31.932Z,101003.47
2018-02-27T04:42:59.378Z,100997.59
2018-02-27T04:45:26.880Z,100998.12
2018-02-27T04:47:54.472Z,101002.69
2018-02-27T04:50:21.951Z,100999.08
2018-02-27T04:52:49.432Z,101002.63
2018-02-27T04:55:16.926Z,100998.03
2018-02-27T04:57:44.433Z,100996.06
2018-02-27T05:00:11.894Z,101000.83
2018-02-27T05:02:39.394Z,100996.91
2018-02-27T05:05:06.970Z,101002.48
2018-02-27T05:07:34.448Z,100994.80
2018-02-27T05:10:01.913Z,100990.67
2018-02-27T05:12:29.416Z,100989.77
2018-02-27T05:14:56.889Z,100990.98
2018-02-27T05:17:24.384Z,100982.56
2018-02-27T05:19:51.870Z,100987.25
2018-02-27T05:22:19.352Z,100987.32
2018-02-27T05:24:46.848Z,100983.88
2018-02-27T05:27:14.373Z,100983.84
2018-02-27T05:29:41.873Z,100978.65
2018-02-27T05:32:09.346Z,100979.58
2018-02-27T05:34:36.950Z,100982.83
2018-02-27T05:37:04.495Z,100981.09
2018-02-27T05:39:31.970Z,100974.52
2018-02-27T05:41:59.451Z,100982.88
2018-02-27T05:44:27.860Z,100986.36
2018-02-27T05:46:55.493Z,100979.17
2018-02-27T05:49:23.022Z,100977.95
2018-02-27T05:51:50.585Z,100980.02
2018-02-27T05:54:18.082Z,100982.37
2018-02-27T05:56:45.589Z,100988.94
2018-02-27T05:59:14.884Z,100987.86
2018-02-27T06:01:42.372Z,100989.03
2018-02-27T06:04:09.878Z,100984.70
2018-02-27T06:06:37.360Z,100989.13
2018-02-27T06:09:04.874Z,100994.16
2018-02-27T06:11:32.382Z,100989.11
2018-02-27T06:13:59.853Z,100984.66
2018-02-27T06:16:27.328Z,100981.50
2018-02-27T06:18:54.802Z,100987.72
2018-02-27T06:21:22.345Z,100988.52
2018-02-27T06:23:49.908Z,100988.69
2018-02-27T06:26:17.379Z,100983.05
2018-02-27T06:28:44.849Z,100985.65
2018-02-27T06:31:12.363Z,100983.95
2018-02-27T06:33:39.862Z,100986.37
2018-02-27T06:36:07.356Z,100989.03
2018-02-27T06:38:34.842Z,100991.67
2018-02-27T06:41:02.348Z,100989.34
2018-02-27T06:43:29.844Z,100990.87
2018-02-27T06:45:57.350Z,100992.57
2018-02-27T06:48:24.866Z,100990.94
2018-02-27T06:50:52.366Z,100988.19
2018-02-27T06:53:20.033Z,100995.20
2018-02-27T06:55:47.544Z,100991.79
2018-02-27T06:58:15.012Z,100993.36
2018-02-27T07:00:42.479Z,100990.39
2018-02-27T07:03:09.987Z,100990.92
2018-02-27T07:05:37.560Z,100983.37
2018-02-27T07:08:05.055Z,100978.42
2018-02-27T07:10:32.509Z,100985.41
2018-02-27T07:12:59.986Z,100984.78
2018-02-27T07:15:27.473Z,100980.09
2018-02-27T07:17:54.965Z,100982.44
2018-02-27T07:20:22.536Z,100981.88
2018-02-27T07:22:50.037Z,100989.05
2018-02-27T07:25:17.544Z,100986.78
2018-02-27T07:27:45.046Z,100983.55
2018-02-27T07:30:12.510Z,100987.08
2018-02-27T07:32:39.980Z,100986.34
2018-02-27T07:35:07.487Z,100989.75
2018-02-27T07:37:34.964Z,100984.06
2018-02-27T07:40:02.594Z,100984.60
2018-02-27T07:42:30.162Z,100977.06
2018-02-27T07:44:57.745Z,100978.55
2018-02-27T07:47:25.316Z,100972.76
2018-02-27T07:49:52.792Z,100970.33
2018-02-27T07:52:20.392Z,100973.75
2018-02-27T07:54:52.865Z,100976.48
2018-02-27T07:57:20.372Z,100972.80
2018-02-27T07:59:47.892Z,100966.02
2018-02-27T08:02:15.402Z,100966.42
2018-02-27T08:04:43.096Z,100962.56
2018-02-27T08:07:10.580Z,100971.88
2018-02-27T08:09:38.080Z,100965.48
2018-02-27T08:12:05.541Z,100962.69
2018-02-27T08:14:33.307Z,100961.17
2018-02-27T08:17:00.887Z,100964.94
2018-02-27T08:19:28.364Z,100964.69
2018-02-27T08:21:55.967Z,100963.27
2018-02-27T08:24:23.440Z,100957.33
2018-02-27T08:26:51.105Z,100959.07
2018-02-27T08:29:18.646Z,100959.63
2018-02-27T08:31:46.135Z,100944.33
2018-02-27T08:34:18.593Z,100939.08
2018-02-27T08:36:46.120Z,100942.19
2018-02-27T08:39:13.667Z,100940.61
2018-02-27T08:41:41.131Z,100940.11
2018-02-27T08:44:08.635Z,100942.09
2018-02-27T08:46:36.196Z,100942.34
2018-02-27T08:49:03.709Z,100938.03
2018-02-27T08:51:31.172Z,100940.52
2018-02-27T08:53:58.775Z,100934.86
2018-02-27T08:56:26.275Z,100934.09
2018-02-27T08:58:53.854Z,100924.98
2018-02-27T09:01:21.350Z,100928.57
2018-02-27T09:03:49.181Z,100928.48
2018-02-27T09:06:16.835Z,100924.94
2018-02-27T09:08:44.316Z,100926.33
2018-02-27T09:11:11.917Z,100928.03
2018-02-27T09:13:39.463Z,100922.94
2018-02-27T09:16:07.077Z,100916.81
2018-02-27T09:18:34.574Z,100918.81
2018-02-27T09:21:02.075Z,100923.45
2018-02-27T09:23:29.541Z,100913.25
2018-02-27T09:25:57.961Z,100904.83
2018-02-27T09:28:25.448Z,100906.25
2018-02-27T09:30:53.037Z,100895.73
2018-02-27T09:33:20.538Z,100892.91
2018-02-27T09:35:48.176Z,100886.92
2018-02-27T09:38:15.680Z,100883.83
2018-02-27T09:43:25.257Z,100891.17
2018-02-27T09:45:52.737Z,100877.36
2018-02-27T09:48:20.227Z,100872.59
2018-02-27T09:50:47.662Z,100869.23
2018-02-27T09:53:16.298Z,100872.61
2018-02-27T09:55:43.814Z,100873.94
2018-02-27T09:58:11.283Z,100876.72
2018-02-27T10:00:40.027Z,100866.40
2018-02-27T10:03:07.529Z,100874.98
2018-02-27T10:05:34.996Z,100875.98
2018-02-27T10:08:02.539Z,100873.78
2018-02-27T10:10:30.148Z,100869.05
2018-02-27T10:12:57.706Z,100874.21
2018-02-27T10:15:25.195Z,100865.13
2018-02-27T10:17:52.707Z,100862.64
2018-02-27T10:20:20.181Z,100859.33
2018-02-27T10:22:47.632Z,100867.61
2018-02-27T10:25:15.084Z,100868.80
2018-02-27T10:27:42.636Z,100862.54
2018-02-27T10:30:10.191Z,100860.55
2018-02-27T10:32:37.706Z,100858.50
2018-02-27T10:35:05.239Z,100865.25
2018-02-27T10:37:32.767Z,100859.39
2018-02-27T10:40:00.278Z,100865.28
2018-02-27T10:42:27.718Z,100857.94
2018-02-27T10:44:55.184Z,100855.43
2018-02-27T10:47:24.008Z,100858.86
2018-02-27T10:49:53.151Z,100853.55
2018-02-27T10:52:20.623Z,100857.05
2018-02-27T10:54:53.116Z,100843.64
2018-02-27T10:57:20.611Z,100843.71
2018-02-27T10:59:48.054Z,100850.85
2018-02-27T11:02:15.570Z,100849.34
2018-02-27T11:04:43.072Z,100849.17
2018-02-27T11:07:10.534Z,100846.20
2018-02-27T11:09:38.022Z,100842.03
2018-02-27T11:12:05.599Z,100840.48
2018-02-27T11:14:33.152Z,100844.77
2018-02-27T11:17:00.733Z,100834.21
2018-02-27T11:19:28.203Z,100832.99
2018-02-27T11:21:55.668Z,100833.83
2018-02-27T11:24:23.264Z,100838.52
2018-02-27T11:26:50.746Z,100829.78
2018-02-27T11:29:18.248Z,100827.85
2018-02-27T11:31:45.811Z,100829.77
2018-02-27T11:34:13.295Z,100825.78
2018-02-27T11:36:40.796Z,100827.73
2018-02-27T11:39:09.802Z,100826.47
2018-02-27T11:41:37.276Z,100835.70
2018-02-27T11:44:04.760Z,100827.09
2018-02-27T11:46:32.224Z,100820.69
2018-02-27T11:48:59.775Z,100813.73
2018-02-27T11:51:27.262Z,100818.09
2018-02-27T11:53:54.952Z,100807.28
2018-02-27T11:56:22.523Z,100804.70
2018-02-27T11:58:50.085Z,100800.89
2018-02-27T12:01:17.540Z,100806.48
2018-02-27T12:03:45.344Z,100794.15
2018-02-27T12:06:12.937Z,100797.62
2018-02-27T12:08:40.474Z,100801.46
2018-02-27T12:11:08.132Z,100799.77
2018-02-27T12:13:35.587Z,100796.84
2018-02-27T12:16:03.114Z,100794.14
2018-02-27T12:18:30.698Z,100785.41
2018-02-27T12:20:58.179Z,100789.23
2018-02-27T12:23:25.854Z,100793.59
2018-02-27T12:25:54.330Z,100783.06
2018-02-27T12:28:21.842Z,100782.73
2018-02-27T12:30:49.434Z,100776.88
2018-02-27T12:33:16.994Z,100783.11
2018-02-27T12:35:44.500Z,100781.66
2018-02-27T12:38:11.978Z,100770.74
2018-02-27T12:40:39.481Z,100771.73
2018-02-27T12:43:06.968Z,100767.86
2018-02-27T12:45:34.486Z,100759.30
2018-02-27T12:48:01.966Z,100764.01
2018-02-27T12:50:30.029Z,100758.97
2018-02-27T12:52:57.530Z,100759.52
2018-02-27T12:55:25.230Z,100756.12
2018-02-27T12:57:52.715Z,100753.01
2018-02-27T13:00:20.258Z,100749.42
2018-02-27T13:02:48.511Z,100753.21
2018-02-27T13:05:16.035Z,100749.83
2018-02-27T13:07:43.694Z,100740.95
2018-02-27T13:10:11.189Z,100744.65
2018-02-27T13:12:38.759Z,100734.70
2018-02-27T13:15:06.242Z,100724.59
2018-02-27T13:17:33.757Z,100729.69
2018-02-27T13:20:01.244Z,100734.42
2018-02-27T13:22:28.702Z,100727.69
2018-02-27T13:24:56.174Z,100721.79
2018-02-27T13:27:23.876Z,100715.44
2018-02-27T13:29:51.540Z,100721.09
2018-02-27T13:32:19.100Z,100721.03
2018-02-27T13:34:46.598Z,100718.92
2018-02-27T13:37:14.115Z,100717.19
2018-02-27T13:39:41.646Z,100722.98
2018-02-27T13:42:09.172Z,100726.29
2018-02-27T13:44:36.662Z,100730.27
2018-02-27T13:47:04.576Z,100726.33
2018-02-27T13:49:32.092Z,100729.91
2018-02-27T13:51:59.795Z,100729.45
2018-02-27T13:54:27.369Z,100732.57
2018-02-27T13:56:54.882Z,100727.44
2018-02-27T13:59:22.430Z,100712.64
2018-02-27T14:01:50.010Z,100724.50
2018-02-27T14:04:17.464Z,100724.28
2018-02-27T14:06:45.032Z,100714.88
2018-02-27T14:09:12.483Z,100709.28
2018-02-27T14:11:39.977Z,100716.98
2018-02-27T14:14:07.441Z,100726.97
2018-02-27T14:16:35.048Z,100720.72
2018-02-27T14:19:02.519Z,100723.35
2018-02-27T14:21:30.217Z,100720.22
2018-02-27T14:23:57.789Z,100715.43
2018-02-27T14:29:07.078Z,100713.78
2018-02-27T14:31:34.656Z,100709.69
2018-02-27T14:34:02.162Z,100706.77
2018-02-27T14:36:29.670Z,100717.80
2018-02-27T14:38:57.166Z,100713.47
2018-02-27T14:41:24.694Z,100714.97
2018-02-27T14:43:52.346Z,100716.36
2018-02-27T14:46:19.918Z,100709.83
2018-02-27T14:48:47.441Z,100712.23
2018-02-27T14:51:15.082Z,100716.13
2018-02-27T14:53:42.575Z,100713.33
2018-02-27T14:56:10.118Z,100712.13
2018-02-27T14:58:37.580Z,100714.73
2018-02-27T15:01:05.567Z,100708.39
2018-02-27T15:03:38.060Z,100712.92
2018-02-27T15:06:05.708Z,100711.69
2018-02-27T15:08:33.150Z,100715.67
2018-02-27T15:11:00.990Z,100721.25
2018-02-27T15:13:28.554Z,100718.09
2018-02-27T15:15:56.049Z,100722.00
2018-02-27T15:18:23.574Z,100715.07
2018-02-27T15:20:51.076Z,100708.88
2018-02-27T15:23:18.581Z,100711.33
2018-02-27T15:25:46.235Z,100704.19
2018-02-27T15:28:13.802Z,100715.20
2018-02-27T15:30:41.400Z,100713.72
2018-02-27T15:33:08.870Z,100711.97
2018-02-27T15:35:36.415Z,100713.08
2018-02-27T15:38:03.899Z,100713.73
2018-02-27T15:40:31.380Z,100714.69
2018-02-27T15:42:58.922Z,100709.58
2018-02-27T15:45:26.446Z,100717.98
2018-02-27T15:47:53.938Z,100717.37
2018-02-27T15:50:21.451Z,100720.55
2018-02-27T15:52:48.997Z,100726.26
2018-02-27T15:55:16.670Z,100721.92
2018-02-27T15:57:44.394Z,100720.38
2018-02-27T16:00:11.903Z,100724.93
2018-02-27T16:02:39.406Z,100725.64
2018-02-27T16:05:07.064Z,100728.31
2018-02-27T16:07:34.576Z,100726.96
2018-02-27T16:10:02.132Z,100721.67
2018-02-27T16:12:29.699Z,100726.67
2018-02-27T16:14:57.290Z,100732.45
2018-02-27T16:17:24.794Z,100729.84
2018-02-27T16:19:52.384Z,100733.81
2018-02-27T16:22:20.758Z,100737.76
2018-02-27T16:24:48.259Z,100741.63
2018-02-27T16:27:15.781Z,100742.47
2018-02-27T16:29:43.275Z,100732.88
2018-02-27T16:32:11.096Z,100741.29
2018-02-27T16:34:38.650Z,100741.86
2018-02-27T16:37:06.240Z,100741.29
2018-02-27T16:39:33.865Z,100737.94
2018-02-27T16:42:01.384Z,100743.55
2018-02-27T16:44:28.885Z,100741.88
2018-02-27T16:46:56.682Z,100743.91
2018-02-27T16:49:24.209Z,100742.30
2018-02-27T16:51:51.731Z,100748.78
2018-02-27T16:54:19.233Z,100749.06
2018-02-27T16:56:46.767Z,100754.80
2018-02-27T16:59:14.358Z,100753.67
2018-02-27T17:01:41.842Z,100753.34
2018-02-27T17:04:09.382Z,100757.64
2018-02-27T17:06:36.849Z,100756.44
2018-02-27T17:09:04.381Z,100756.88
2018-02-27T17:11:31.898Z,100754.50
2018-02-27T17:13:59.427Z,100762.97
2018-02-27T17:16:27.000Z,100765.67
2018-02-27T17:18:54.499Z,100770.59
2018-02-27T17:21:21.976Z,100771.83
2018-02-27T17:23:49.521Z,100769.33
2018-02-27T17:26:17.020Z,100771.80
2018-02-27T17:28:44.518Z,100769.23
2018-02-27T17:31:12.066Z,100778.02
2018-02-27T17:33:39.624Z,100772.44
2018-02-27T17:36:07.200Z,100779.80
2018-02-27T17:38:34.726Z,100770.06
2018-02-27T17:41:02.272Z,100779.67
2018-02-27T17:43:29.874Z,100772.03
2018-02-27T17:45:58.034Z,100779.50
2018-02-27T17:48:25.558Z,100779.13
2018-02-27T17:50:53.036Z,100778.90
2018-02-27T17:53:20.536Z,100775.59
2018-02-27T17:55:48.082Z,100778.20
2018-02-27T17:58:15.853Z,100774.32
2018-02-27T18:00:43.395Z,100773.69
2018-02-27T18:03:10.943Z,100784.27
2018-02-27T18:05:38.499Z,100779.43
2018-02-27T18:08:05.990Z,100782.35
2018-02-27T18:10:33.459Z,100787.59
2018-02-27T18:13:01.044Z,100784.05
2018-02-27T18:15:28.588Z,100780.39
2018-02-27T18:17:56.119Z,100781.55
2018-02-27T18:20:23.592Z,100783.53
2018-02-27T18:22:51.169Z,100778.23
2018-02-27T18:25:18.669Z,100777.32
2018-02-27T18:27:46.218Z,100779.02
2018-02-27T18:30:15.352Z,100788.06
2018-02-27T18:32:43.320Z,100782.80
2018-02-27T18:35:11.498Z,100784.98
2018-02-27T18:37:39.160Z,100784.62
2018-02-27T18:40:06.881Z,100782.25
2018-02-27T18:42:34.576Z,100789.53
2018-02-27T18:45:02.129Z,100786.23
2018-02-27T18:47:29.622Z,100786.44
2018-02-27T18:49:57.133Z,100786.41
2018-02-27T18:52:24.632Z,100794.81
2018-02-27T18:54:52.169Z,100792.59
2018-02-27T18:57:19.713Z,100797.33
2018-02-27T18:59:47.215Z,100798.80
2018-02-27T19:02:14.805Z,100798.14
2018-02-27T19:04:42.521Z,100798.69
2018-02-27T19:07:10.030Z,100796.05
2018-02-27T19:09:37.681Z,100800.33
2018-02-27T19:12:05.218Z,100811.66
2018-02-27T19:14:32.755Z,100811.19
2018-02-27T19:17:00.293Z,100818.79
2018-02-27T19:19:27.766Z,100816.84
2018-02-27T19:21:55.249Z,100823.63
2018-02-27T19:24:22.731Z,100822.41
2018-02-27T19:26:50.239Z,100825.15
2018-02-27T19:29:17.738Z,100836.20
2018-02-27T19:31:45.256Z,100835.48
2018-02-27T19:34:12.837Z,100842.50
2018-02-27T19:36:40.362Z,100834.11
2018-02-27T19:39:07.932Z,100836.74
2018-02-27T19:41:35.402Z,100841.11
2018-02-27T19:44:02.970Z,100840.41
2018-02-27T19:46:30.460Z,100840.97
2018-02-27T19:48:58.062Z,100845.50
2018-02-27T19:51:25.578Z,100851.45
2018-02-27T19:53:53.064Z,100857.66
2018-02-27T19:56:20.692Z,100854.00
2018-02-27T19:58:48.186Z,100856.60
2018-02-27T20:01:15.776Z,100855.99
2018-02-27T20:03:43.325Z,100859.08
2018-02-27T20:06:10.970Z,100856.61
2018-02-27T20:08:38.535Z,100859.62
2018-02-27T20:11:06.029Z,100864.34
2018-02-27T20:13:33.510Z,100864.14
2018-02-27T20:16:01.092Z,100868.34
2018-02-27T20:18:28.735Z,100872.91
2018-02-27T20:20:56.283Z,100880.78
2018-02-27T20:23:29.435Z,100873.41
2018-02-27T20:25:56.917Z,100875.57
2018-02-27T20:28:29.914Z,100875.48
2018-02-27T20:30:57.522Z,100872.27
2018-02-27T20:33:25.041Z,100882.91
2018-02-27T20:35:52.567Z,100887.45
2018-02-27T20:41:19.065Z,100890.10
2018-02-27T20:43:47.161Z,100889.86
2018-02-27T20:46:14.670Z,100890.60
2018-02-27T20:48:42.197Z,100895.67
2018-02-27T20:51:09.719Z,100897.53
2018-02-27T20:53:42.305Z,100901.83
2018-02-27T20:56:09.881Z,100901.86
2018-02-27T20:58:37.363Z,100904.66
2018-02-27T21:01:04.879Z,100901.86
2018-02-27T21:03:32.420Z,100903.25
2018-02-27T21:05:59.909Z,100898.64
2018-02-27T21:08:27.408Z,100907.42
2018-02-27T21:10:54.880Z,100903.45
2018-02-27T21:13:22.495Z,100911.87
2018-02-27T21:15:51.045Z,100918.19
2018-02-27T21:18:18.553Z,100916.78
2018-02-27T21:20:46.061Z,100917.73
2018-02-27T21:23:13.528Z,100917.02
2018-02-27T21:25:41.031Z,100925.78
2018-02-27T21:28:08.511Z,100917.67
2018-02-27T21:30:36.018Z,100921.39
2018-02-27T21:33:03.586Z,100921.41
2018-02-27T21:35:31.073Z,100936.06
2018-02-27T21:37:58.633Z,100924.02
2018-02-27T21:40:26.179Z,100925.77
2018-02-27T21:42:53.732Z,100923.37
2018-02-27T21:45:21.377Z,100930.80
2018-02-27T21:47:48.879Z,100928.00
2018-02-27T21:50:16.393Z,100934.50
2018-02-27T21:52:43.881Z,100922.66
2018-02-27T21:55:11.409Z,100927.31
2018-02-27T21:57:38.902Z,100928.92
2018-02-27T22:00:06.435Z,100931.23
2018-02-27T22:02:34.691Z,100936.59
2018-02-27T22:05:02.256Z,100935.88
2018-02-27T22:07:30.052Z,100936.70
2018-02-27T22:09:57.561Z,100935.02
2018-02-27T22:12:25.120Z,100936.70
2018-02-27T22:14:52.928Z,100937.03
2018-02-27T22:17:20.465Z,100943.08
2018-02-27T22:19:47.998Z,100945.30
2018-02-27T22:22:15.499Z,100943.73
2018-02-27T22:24:43.073Z,100941.58
2018-02-27T22:27:10.533Z,100940.67
2018-02-27T22:29:38.049Z,100938.41
2018-02-27T22:32:05.582Z,100940.83
2018-02-27T22:34:33.028Z,100935.33
2018-02-27T22:37:00.620Z,100942.55
2018-02-27T22:39:28.126Z,100940.59
2018-02-27T22:41:55.717Z,100941.50
2018-02-27T22:44:23.272Z,100935.24
2018-02-27T22:46:50.788Z,100950.67
2018-02-27T22:49:18.282Z,100947.19
2018-02-27T22:51:45.834Z,100948.58
2018-02-27T22:54:13.318Z,100943.27
2018-02-27T22:56:40.788Z,100951.13
2018-02-27T22:59:10.522Z,100948.66
2018-02-27T23:01:38.324Z,100950.05
2018-02-27T23:04:05.837Z,100947.54
2018-02-27T23:06:33.338Z,100956.44
2018-02-27T23:09:00.803Z,100953.77
2018-02-27T23:11:28.319Z,100953.79
2018-02-27T23:13:55.844Z,100957.00
2018-02-27T23:16:23.338Z,100953.70
2018-02-27T23:18:50.845Z,100960.64
2018-02-27T23:21:18.368Z,100955.80
2018-02-27T23:23:47.536Z,100961.55
2018-02-27T23:26:27.360Z,100967.91
2018-02-27T23:28:55.452Z,100962.00
2018-02-27T23:31:23.014Z,100963.28
2018-02-27T23:34:04.986Z,100963.95
2018-02-27T23:36:32.497Z,100979.47
2018-02-27T23:39:00.031Z,100975.91
2018-02-27T23:41:27.537Z,100972.72
2018-02-27T23:43:54.991Z,100971.58
2018-02-27T23:46:22.452Z,100976.27
2018-02-27T23:48:49.916Z,100974.63
2018-02-27T23:51:17.518Z,100976.59
2018-02-27T23:53:49.989Z,100969.70
2018-02-27T23:56:17.446Z,100972.03
2018-02-27T23:58:44.904Z,100968.83
